Kalenakliyat 2 — TCBA7 — position and weather

sailwx.info

Track history (hours):
 
Tides and Currents Weather Stations Pressure Air Temp Water Temp Dewpoint Dewpoint Depression Visibility Wind Speed Wind Dir Waves Ship Positions

Kalenakliyat 2

Last reported at 2016-Aug-27 09:19 UTC. Time now 2016-Aug-27 11:42 UTC.
Position N 40°45' E 029°22'.

Length 72 m; draft 5.1 m.

Type: Cargo ship. MMSI: 271002023.

Date/timePositionNaut miles runAvg speedWind from/ knotsBaromVisibWave heightAir tempDewpointWater temp
2016-Aug-27 09:19N 40°45' E 029°22'0 0.0
2016-Aug-27 04:32N 40°45' E 029°22'6 6.3
2016-Aug-27 03:33N 40°44' E 029°14'9 9.5
2016-Aug-27 02:33N 40°42' E 029°02'9 8.7
2016-Aug-27 01:33N 40°42' E 028°51'7 0.2
2016-Aug-25 18:32N 40°44' E 028°60'9 9.0
2016-Aug-25 17:33N 40°45' E 029°11'8 8.2
2016-Aug-25 16:33N 40°45' E 029°22'0 0.1
2016-Aug-25 14:32N 40°45' E 029°22'0 0.0
2016-Aug-25 13:33N 40°45' E 029°22'0 0.0
2016-Aug-25 12:32N 40°45' E 029°22'0 0.0
2016-Aug-25 11:33N 40°45' E 029°22'0 0.0
2016-Aug-25 10:33N 40°45' E 029°22'0 0.0
2016-Aug-25 09:33N 40°45' E 029°22'0 0.0
2016-Aug-25 07:30N 40°45' E 029°22'0 0.0
2016-Aug-25 06:29N 40°45' E 029°22'1 0.3
2016-Aug-25 04:32N 40°45' E 029°22'9 9.2
2016-Aug-25 03:31N 40°44' E 029°10'8 8.0
2016-Aug-25 02:33N 40°43' E 028°59'13 0.3
2016-Aug-23 00:21N 40°53' E 029°11'0 0.0
2016-Aug-22 23:33N 40°53' E 029°11'0 0.1
2016-Aug-22 22:32N 40°53' E 029°11'0 0.0
2016-Aug-22 21:33N 40°53' E 029°11'0 0.0
2016-Aug-22 20:33N 40°53' E 029°11'0 0.1
2016-Aug-22 19:33N 40°53' E 029°11'0 0.0
2016-Aug-22 18:32N 40°53' E 029°11'0 0.0
2016-Aug-22 17:33N 40°53' E 029°11'0 0.0
2016-Aug-22 16:33N 40°53' E 029°11'0 0.0
2016-Aug-22 15:33N 40°53' E 029°11'0 0.0
2016-Aug-22 14:33N 40°53' E 029°11'0 0.0
2016-Aug-22 13:33N 40°53' E 029°11'0 0.0
2016-Aug-22 12:33N 40°53' E 029°11'0 0.0
2016-Aug-22 11:33N 40°53' E 029°11'0 0.0
2016-Aug-22 10:33N 40°53' E 029°11'0 0.0
2016-Aug-22 09:32N 40°53' E 029°11'0 0.0
2016-Aug-22 08:33N 40°53' E 029°11'0 0.0
2016-Aug-22 07:33N 40°53' E 029°11'0 0.0
2016-Aug-22 06:33N 40°53' E 029°11'0 0.0
2016-Aug-22 05:33N 40°53' E 029°11'0 0.0
2016-Aug-22 04:33N 40°53' E 029°11'0 0.0
2016-Aug-22 03:33N 40°53' E 029°11'0 0.0
2016-Aug-22 02:33N 40°53' E 029°11'0 0.0
2016-Aug-22 01:32N 40°53' E 029°11'0 0.0
2016-Aug-22 00:33N 40°53' E 029°11'0 0.0
2016-Aug-21 23:33N 40°53' E 029°11'0 0.1
2016-Aug-21 22:33N 40°53' E 029°11'0 0.0
2016-Aug-21 21:33N 40°53' E 029°11'0 0.0
2016-Aug-21 20:33N 40°53' E 029°11'0 0.0
2016-Aug-21 19:33N 40°53' E 029°11'0 0.0
2016-Aug-21 18:33N 40°53' E 029°11'0 0.0
2016-Aug-21 17:33N 40°53' E 029°11'0 0.0
2016-Aug-21 16:33N 40°53' E 029°11'0 0.0
2016-Aug-21 15:33N 40°53' E 029°11'0 0.0
2016-Aug-21 14:33N 40°53' E 029°11'0 0.0
2016-Aug-21 13:33N 40°53' E 029°11'0 0.0
2016-Aug-21 12:33N 40°53' E 029°11'0 0.1
2016-Aug-21 11:33N 40°53' E 029°11'0 0.0
2016-Aug-21 10:33N 40°53' E 029°11'0 0.1
2016-Aug-21 09:33N 40°53' E 029°11'0 0.0
2016-Aug-21 08:33N 40°53' E 029°11'0 0.0
2016-Aug-21 07:33N 40°53' E 029°11'0 0.0
2016-Aug-21 06:33N 40°53' E 029°11'0 0.1
2016-Aug-21 05:33N 40°53' E 029°11'0 0.1
2016-Aug-21 04:33N 40°53' E 029°11'0 0.0
2016-Aug-21 03:33N 40°53' E 029°11'6 6.1
2016-Aug-21 02:33N 40°49' E 029°05'  
Track history (hours):
 
Tides and Currents Weather Stations Pressure Air Temp Water Temp Dewpoint Dewpoint Depression Visibility Wind Speed Wind Dir Waves Ship Positions

Kalenakliyat 2

Last reported at 2016-Aug-27 09:19 UTC. Time now 2016-Aug-27 11:42 UTC.
Position N 40°45' E 029°22'.

Length 72 m; draft 5.1 m.

Type: Cargo ship. MMSI: 271002023.

Date/timePositionNaut miles runAvg speedWind from/ knotsBaromVisibWave heightAir tempDewpointWater temp
2016-Aug-27 09:19N 40°45' E 029°22'0 0.0
2016-Aug-27 04:32N 40°45' E 029°22'6 6.3
2016-Aug-27 03:33N 40°44' E 029°14'9 9.5
2016-Aug-27 02:33N 40°42' E 029°02'9 8.7
2016-Aug-27 01:33N 40°42' E 028°51'7 0.2
2016-Aug-25 18:32N 40°44' E 028°60'9 9.0
2016-Aug-25 17:33N 40°45' E 029°11'8 8.2
2016-Aug-25 16:33N 40°45' E 029°22'0 0.1
2016-Aug-25 14:32N 40°45' E 029°22'0 0.0
2016-Aug-25 13:33N 40°45' E 029°22'0 0.0
2016-Aug-25 12:32N 40°45' E 029°22'0 0.0
2016-Aug-25 11:33N 40°45' E 029°22'0 0.0
2016-Aug-25 10:33N 40°45' E 029°22'0 0.0
2016-Aug-25 09:33N 40°45' E 029°22'0 0.0
2016-Aug-25 07:30N 40°45' E 029°22'0 0.0
2016-Aug-25 06:29N 40°45' E 029°22'1 0.3
2016-Aug-25 04:32N 40°45' E 029°22'9 9.2
2016-Aug-25 03:31N 40°44' E 029°10'8 8.0
2016-Aug-25 02:33N 40°43' E 028°59'13 0.3
2016-Aug-23 00:21N 40°53' E 029°11'0 0.0
2016-Aug-22 23:33N 40°53' E 029°11'0 0.1
2016-Aug-22 22:32N 40°53' E 029°11'0 0.0
2016-Aug-22 21:33N 40°53' E 029°11'0 0.0
2016-Aug-22 20:33N 40°53' E 029°11'0 0.1
2016-Aug-22 19:33N 40°53' E 029°11'0 0.0
2016-Aug-22 18:32N 40°53' E 029°11'0 0.0
2016-Aug-22 17:33N 40°53' E 029°11'0 0.0
2016-Aug-22 16:33N 40°53' E 029°11'0 0.0
2016-Aug-22 15:33N 40°53' E 029°11'0 0.0
2016-Aug-22 14:33N 40°53' E 029°11'0 0.0
2016-Aug-22 13:33N 40°53' E 029°11'0 0.0
2016-Aug-22 12:33N 40°53' E 029°11'0 0.0
2016-Aug-22 11:33N 40°53' E 029°11'0 0.0
2016-Aug-22 10:33N 40°53' E 029°11'0 0.0
2016-Aug-22 09:32N 40°53' E 029°11'0 0.0
2016-Aug-22 08:33N 40°53' E 029°11'0 0.0
2016-Aug-22 07:33N 40°53' E 029°11'0 0.0
2016-Aug-22 06:33N 40°53' E 029°11'0 0.0
2016-Aug-22 05:33N 40°53' E 029°11'0 0.0
2016-Aug-22 04:33N 40°53' E 029°11'0 0.0
2016-Aug-22 03:33N 40°53' E 029°11'0 0.0
2016-Aug-22 02:33N 40°53' E 029°11'0 0.0
2016-Aug-22 01:32N 40°53' E 029°11'0 0.0
2016-Aug-22 00:33N 40°53' E 029°11'0 0.0
2016-Aug-21 23:33N 40°53' E 029°11'0 0.1
2016-Aug-21 22:33N 40°53' E 029°11'0 0.0
2016-Aug-21 21:33N 40°53' E 029°11'0 0.0
2016-Aug-21 20:33N 40°53' E 029°11'0 0.0
2016-Aug-21 19:33N 40°53' E 029°11'0 0.0
2016-Aug-21 18:33N 40°53' E 029°11'0 0.0
2016-Aug-21 17:33N 40°53' E 029°11'0 0.0
2016-Aug-21 16:33N 40°53' E 029°11'0 0.0
2016-Aug-21 15:33N 40°53' E 029°11'0 0.0
2016-Aug-21 14:33N 40°53' E 029°11'0 0.0
2016-Aug-21 13:33N 40°53' E 029°11'0 0.0
2016-Aug-21 12:33N 40°53' E 029°11'0 0.1
2016-Aug-21 11:33N 40°53' E 029°11'0 0.0
2016-Aug-21 10:33N 40°53' E 029°11'0 0.1
2016-Aug-21 09:33N 40°53' E 029°11'0 0.0
2016-Aug-21 08:33N 40°53' E 029°11'0 0.0
2016-Aug-21 07:33N 40°53' E 029°11'0 0.0
2016-Aug-21 06:33N 40°53' E 029°11'0 0.1
2016-Aug-21 05:33N 40°53' E 029°11'0 0.1
2016-Aug-21 04:33N 40°53' E 029°11'0 0.0
2016-Aug-21 03:33N 40°53' E 029°11'6 6.1
2016-Aug-21 02:33N 40°49' E 029°05'  

Dump ship's entire track history